Time;durP1;ratioP1;P1;durP2;ratioP2;P2;SDS_P1;SDS_P2;PMS_P1;PMS_P2;Temp;Humidity;BMP_temperature;BMP_pressure;BME280_temperature;BME280_humidity;BME280_pressure;Samples;Min_cycle;Max_cycle;Signal;HPM_P1;HPM_P2
2022/08/20 00:01:17;;;;;;;25.30;15.53;;;;;;;;;;5070888;28;20104;-68
2022/08/20 00:03:42;;;;;;;23.38;15.80;;;;;;;;;;5070845;28;20344;-67
2022/08/20 00:06:13;;;;;;;23.77;15.38;;;;;;;;;;5070688;28;20024;-67
2022/08/20 00:08:40;;;;;;;24.38;16.05;;;;;;;;;;5070628;28;20321;-68
2022/08/20 00:11:08;;;;;;;25.48;15.40;;;;;;;;;;5070693;28;20064;-68
2022/08/20 00:13:41;;;;;;;22.90;15.20;;;;;;;;;;5070186;28;20057;-68
2022/08/20 00:16:07;;;;;;;23.08;16.02;;;;;;;;;;5070722;28;20028;-68
2022/08/20 00:18:35;;;;;;;24.85;15.73;;;;;;;;;;5070165;28;20032;-68
2022/08/20 00:21:03;;;;;;;24.33;15.45;;;;;;;;;;5070366;28;20082;-68
2022/08/20 00:23:29;;;;;;;24.48;15.02;;;;;;;;;;5070405;28;20130;-68
2022/08/20 00:25:54;;;;;;;23.25;15.70;;;;;;;;;;5070347;28;20108;-68
2022/08/20 00:28:19;;;;;;;24.95;15.38;;;;;;;;;;5070287;28;20060;-68
2022/08/20 00:30:46;;;;;;;22.40;14.90;;;;;;;;;;5070037;28;20028;-68
2022/08/20 00:33:15;;;;;;;22.52;15.18;;;;;;;;;;5070190;28;20074;-68
2022/08/20 00:35:45;;;;;;;24.75;14.60;;;;;;;;;;5070055;28;20132;-68
2022/08/20 00:38:11;;;;;;;24.27;16.20;;;;;;;;;;5070278;28;20673;-69
2022/08/20 00:40:59;;;;;;;23.95;16.52;;;;;;;;;;5070136;28;20024;-68
2022/08/20 00:43:27;;;;;;;23.98;15.57;;;;;;;;;;5069020;28;20086;-67
2022/08/20 00:45:56;;;;;;;24.85;16.30;;;;;;;;;;5069991;28;20022;-68
2022/08/20 00:48:24;;;;;;;27.88;16.95;;;;;;;;;;5070155;28;20028;-68
2022/08/20 00:50:49;;;;;;;31.60;17.20;;;;;;;;;;5069965;28;20036;-68
2022/08/20 00:53:25;;;;;;;25.70;16.75;;;;;;;;;;5069819;28;20120;-68
2022/08/20 00:55:50;;;;;;;32.42;17.05;;;;;;;;;;5069646;28;20020;-69
2022/08/20 00:58:17;;;;;;;24.27;16.80;;;;;;;;;;5069654;28;20059;-68
2022/08/20 01:00:45;;;;;;;25.33;16.23;;;;;;;;;;5069924;28;20397;-68
2022/08/20 01:03:13;;;;;;;24.83;16.02;;;;;;;;;;5069798;28;20039;-68
2022/08/20 01:05:43;;;;;;;25.27;16.95;;;;;;;;;;5069585;28;20028;-68
2022/08/20 01:08:09;;;;;;;27.48;17.05;;;;;;;;;;5069386;28;20533;-68
2022/08/20 01:10:37;;;;;;;26.50;17.00;;;;;;;;;;5069719;28;20155;-67
2022/08/20 01:13:09;;;;;;;30.20;18.15;;;;;;;;;;5069807;28;20024;-67
2022/08/20 01:15:38;;;;;;;25.25;18.00;;;;;;;;;;5069753;28;20031;-68
2022/08/20 01:18:04;;;;;;;26.48;16.55;;;;;;;;;;5069573;28;20154;-68
2022/08/20 01:20:37;;;;;;;31.30;18.13;;;;;;;;;;5069807;28;20052;-69
2022/08/20 01:23:28;;;;;;;28.27;17.33;;;;;;;;;;5069382;28;20087;-69
2022/08/20 01:26:01;;;;;;;28.48;17.83;;;;;;;;;;5068458;28;20390;-68
2022/08/20 01:28:35;;;;;;;29.73;17.45;;;;;;;;;;5069785;28;20075;-69
2022/08/20 01:31:00;;;;;;;;;;;;;;;;;;5069473;28;20055;-68
2022/08/20 01:33:26;;;;;;;27.90;17.40;;;;;;;;;;5069267;28;20378;-67
2022/08/20 01:35:52;;;;;;;27.63;17.52;;;;;;;;;;5069385;28;20428;-68
2022/08/20 01:38:18;;;;;;;25.55;18.10;;;;;;;;;;5069353;28;20032;-68
2022/08/20 01:41:02;;;;;;;31.95;19.20;;;;;;;;;;5069210;28;20032;-68
2022/08/20 01:43:27;;;;;;;;;;;;;;;;;;5069147;28;20028;-68
2022/08/20 01:45:53;;;;;;;27.43;17.70;;;;;;;;;;5069166;28;19912;-69
2022/08/20 01:48:19;;;;;;;27.48;17.70;;;;;;;;;;5069145;28;20103;-68
2022/08/20 01:50:54;;;;;;;28.23;18.70;;;;;;;;;;5069175;28;20039;-69
2022/08/20 01:53:27;;;;;;;31.60;19.17;;;;;;;;;;5069209;28;20024;-68
2022/08/20 01:55:52;;;;;;;31.70;20.58;;;;;;;;;;5068687;28;20444;-68
2022/08/20 01:58:18;;;;;;;31.17;18.80;;;;;;;;;;5069190;28;20060;-68
2022/08/20 02:00:43;;;;;;;34.53;19.88;;;;;;;;;;5069214;28;20024;-68
2022/08/20 02:03:08;;;;;;;33.40;20.50;;;;;;;;;;5068971;28;20025;-68
2022/08/20 02:05:34;;;;;;;32.95;20.27;;;;;;;;;;5069174;28;20378;-68
2022/08/20 02:08:00;;;;;;;32.22;20.27;;;;;;;;;;5068877;28;20033;-68
2022/08/20 02:10:26;;;;;;;32.88;19.60;;;;;;;;;;5068803;28;20111;-70
2022/08/20 02:12:52;;;;;;;40.67;22.48;;;;;;;;;;5069136;28;20503;-68
2022/08/20 02:15:17;;;;;;;37.15;22.02;;;;;;;;;;5068865;28;20024;-69
2022/08/20 02:17:42;;;;;;;37.83;21.73;;;;;;;;;;5069033;28;20025;-69
2022/08/20 02:20:18;;;;;;;45.00;25.67;;;;;;;;;;5068704;28;20304;-69
2022/08/20 02:22:51;;;;;;;41.40;23.70;;;;;;;;;;5069011;28;20059;-69
2022/08/20 02:25:18;;;;;;;;;;;;;;;;;;5069268;28;20468;-68
2022/08/20 02:27:45;;;;;;;43.53;23.50;;;;;;;;;;5068947;28;19913;-69
2022/08/20 02:30:24;;;;;;;47.42;25.13;;;;;;;;;;5068314;28;20042;-69
2022/08/20 02:32:49;;;;;;;43.20;24.63;;;;;;;;;;5068721;28;20389;-70
2022/08/20 02:35:16;;;;;;;53.92;25.45;;;;;;;;;;5068854;28;20024;-70
2022/08/20 02:37:42;;;;;;;52.35;26.58;;;;;;;;;;5071363;28;20036;-70
2022/08/20 02:40:11;;;;;;;56.80;27.60;;;;;;;;;;5072485;28;20698;-69
2022/08/20 02:42:37;;;;;;;59.55;27.38;;;;;;;;;;5071986;28;20434;-69
2022/08/20 02:45:04;;;;;;;61.95;28.77;;;;;;;;;;5072044;28;20111;-70
2022/08/20 02:47:30;;;;;;;64.53;28.65;;;;;;;;;;5072448;28;20067;-68
2022/08/20 02:49:56;;;;;;;59.10;27.88;;;;;;;;;;5072214;28;20028;-67
2022/08/20 02:52:21;;;;;;;54.78;26.55;;;;;;;;;;5072426;28;20075;-69
2022/08/20 02:54:49;;;;;;;61.00;26.53;;;;;;;;;;5071677;28;20457;-70
2022/08/20 02:57:19;;;;;;;69.40;29.33;;;;;;;;;;5071930;28;20281;-68
2022/08/20 02:59:44;;;;;;;69.18;28.30;;;;;;;;;;5071991;28;20027;-69
2022/08/20 03:02:10;;;;;;;67.95;27.77;;;;;;;;;;5072046;28;20032;-69
2022/08/20 03:04:36;;;;;;;64.57;28.17;;;;;;;;;;5071898;28;20020;-68
2022/08/20 03:07:03;;;;;;;60.92;28.83;;;;;;;;;;5071703;28;20067;-68
2022/08/20 03:09:29;;;;;;;67.32;28.00;;;;;;;;;;5071827;28;20431;-68
2022/08/20 03:11:54;;;;;;;65.60;29.20;;;;;;;;;;5071910;28;20025;-69
2022/08/20 03:14:19;;;;;;;63.70;27.80;;;;;;;;;;5071792;28;20420;-68
2022/08/20 03:16:44;;;;;;;63.67;28.73;;;;;;;;;;5071960;28;20021;-69
2022/08/20 03:19:10;;;;;;;58.10;27.03;;;;;;;;;;5071605;28;20258;-69
2022/08/20 03:21:35;;;;;;;61.53;27.58;;;;;;;;;;5071637;28;20268;-69
2022/08/20 03:24:00;;;;;;;52.78;25.90;;;;;;;;;;5071473;28;20024;-70
2022/08/20 03:26:26;;;;;;;58.40;26.53;;;;;;;;;;5071690;28;20393;-69
2022/08/20 03:28:51;;;;;;;55.97;25.95;;;;;;;;;;5071752;28;20680;-69
2022/08/20 03:31:16;;;;;;;46.00;24.23;;;;;;;;;;5071371;28;20025;-70
2022/08/20 03:33:42;;;;;;;46.80;25.00;;;;;;;;;;5071342;28;20353;-69
2022/08/20 03:36:07;;;;;;;51.75;25.60;;;;;;;;;;5071646;28;20048;-69
2022/08/20 03:38:33;;;;;;;48.22;24.75;;;;;;;;;;5071240;28;20539;-68
2022/08/20 03:40:59;;;;;;;50.05;25.55;;;;;;;;;;5071543;28;20399;-68
2022/08/20 03:43:24;;;;;;;47.83;25.67;;;;;;;;;;5071121;28;20366;-69
2022/08/20 03:45:50;;;;;;;52.50;24.33;;;;;;;;;;5071112;28;20040;-69
2022/08/20 03:48:18;;;;;;;50.58;26.50;;;;;;;;;;5070346;28;20269;-69
2022/08/20 03:50:45;;;;;;;45.75;24.63;;;;;;;;;;5071163;28;20119;-68
2022/08/20 03:53:11;;;;;;;44.60;23.08;;;;;;;;;;5070879;28;20067;-69
2022/08/20 03:55:38;;;;;;;44.35;24.08;;;;;;;;;;5070572;28;20052;-69
2022/08/20 03:58:06;;;;;;;43.22;23.02;;;;;;;;;;5070883;28;20404;-69
2022/08/20 04:00:48;;;;;;;43.03;23.42;;;;;;;;;;5070858;28;20116;-67
2022/08/20 04:03:14;;;;;;;42.17;22.40;;;;;;;;;;5070754;28;20063;-68
2022/08/20 04:05:41;;;;;;;39.92;21.58;;;;;;;;;;5070727;28;20016;-67
2022/08/20 04:08:13;;;;;;;39.28;22.42;;;;;;;;;;5070623;28;20126;-68
2022/08/20 04:10:38;;;;;;;37.03;20.63;;;;;;;;;;5070840;28;20028;-69
2022/08/20 04:13:05;;;;;;;34.97;19.45;;;;;;;;;;5070448;28;20090;-68
2022/08/20 04:15:31;;;;;;;36.78;20.05;;;;;;;;;;5070708;28;20033;-69
2022/08/20 04:17:56;;;;;;;33.22;18.67;;;;;;;;;;5070748;28;20028;-69
2022/08/20 04:20:24;;;;;;;31.67;18.75;;;;;;;;;;5070136;28;20545;-69
2022/08/20 04:22:53;;;;;;;35.15;18.38;;;;;;;;;;5070465;28;20104;-69
2022/08/20 04:25:20;;;;;;;35.47;19.15;;;;;;;;;;5070498;28;20020;-69
2022/08/20 04:27:46;;;;;;;37.38;19.58;;;;;;;;;;5070285;28;20079;-69
2022/08/20 04:30:15;;;;;;;32.85;17.63;;;;;;;;;;5069947;28;20493;-69
2022/08/20 04:32:41;;;;;;;33.38;17.30;;;;;;;;;;5070281;28;20086;-68
2022/08/20 04:35:10;;;;;;;33.78;17.67;;;;;;;;;;5070055;28;20036;-68
2022/08/20 04:37:38;;;;;;;38.28;17.33;;;;;;;;;;5070235;28;20056;-69
2022/08/20 04:42:49;;;;;;;28.17;15.07;;;;;;;;;;5071804;28;20035;-69
2022/08/20 04:45:14;;;;;;;38.15;14.27;;;;;;;;;;5072357;28;20016;-68
2022/08/20 04:47:40;;;;;;;43.53;15.73;;;;;;;;;;5073598;28;20044;-69
2022/08/20 04:50:08;;;;;;;33.03;14.95;;;;;;;;;;5073497;28;20253;-70
2022/08/20 04:52:33;;;;;;;40.88;13.80;;;;;;;;;;5073712;28;20028;-69
2022/08/20 04:54:58;;;;;;;35.13;12.98;;;;;;;;;;5073463;28;20600;-68
2022/08/20 04:57:25;;;;;;;31.58;11.73;;;;;;;;;;5073480;28;20107;-67
2022/08/20 04:59:53;;;;;;;28.50;10.50;;;;;;;;;;5073410;28;20020;-68
2022/08/20 05:02:20;;;;;;;34.75;11.13;;;;;;;;;;5073553;28;20462;-69
2022/08/20 05:04:46;;;;;;;33.58;11.15;;;;;;;;;;5073650;28;20119;-70
2022/08/20 05:07:13;;;;;;;22.13;9.35;;;;;;;;;;5073461;28;20023;-68
2022/08/20 05:09:38;;;;;;;22.13;9.38;;;;;;;;;;5073212;28;20448;-67
2022/08/20 05:12:04;;;;;;;25.63;9.43;;;;;;;;;;5073451;28;20028;-67
2022/08/20 05:14:30;;;;;;;24.75;8.45;;;;;;;;;;5073249;28;20029;-67
2022/08/20 05:16:56;;;;;;;20.85;8.48;;;;;;;;;;5073181;28;20055;-68
2022/08/20 05:19:22;;;;;;;17.27;8.52;;;;;;;;;;5073009;28;20474;-68
2022/08/20 05:21:51;;;;;;;16.42;7.30;;;;;;;;;;5073301;28;20040;-68
2022/08/20 05:24:16;;;;;;;22.05;8.10;;;;;;;;;;5073093;28;20474;-69
2022/08/20 05:26:41;;;;;;;17.47;8.13;;;;;;;;;;5072920;28;20035;-69
2022/08/20 05:29:06;;;;;;;21.95;8.48;;;;;;;;;;5073226;28;20781;-69
2022/08/20 05:31:33;;;;;;;22.83;9.80;;;;;;;;;;5073069;28;20504;-69
2022/08/20 05:34:08;;;;;;;24.23;9.57;;;;;;;;;;5072813;28;20257;-69
2022/08/20 05:36:33;;;;;;;24.70;10.05;;;;;;;;;;5072925;28;20024;-69
2022/08/20 05:38:58;;;;;;;27.52;11.60;;;;;;;;;;5072810;28;20032;-69
2022/08/20 05:41:24;;;;;;;30.73;12.27;;;;;;;;;;5072922;28;20025;-68
2022/08/20 05:43:49;;;;;;;39.72;13.52;;;;;;;;;;5072718;28;20124;-69
2022/08/20 05:46:15;;;;;;;50.23;14.80;;;;;;;;;;5072882;28;20052;-68
2022/08/20 05:48:40;;;;;;;55.25;16.52;;;;;;;;;;5072982;28;20261;-69
2022/08/20 05:51:07;;;;;;;53.03;15.67;;;;;;;;;;5073270;28;20478;-69
2022/08/20 05:53:33;;;;;;;49.70;16.95;;;;;;;;;;5073252;28;20615;-69
2022/08/20 05:55:59;;;;;;;50.45;16.15;;;;;;;;;;5072890;28;20016;-68
2022/08/20 05:58:28;;;;;;;45.15;16.58;;;;;;;;;;5072587;28;20033;-69
2022/08/20 06:00:53;;;;;;;53.28;16.92;;;;;;;;;;5072806;28;20024;-69
2022/08/20 06:06:04;;;;;;;47.92;15.90;;;;;;;;;;5072505;28;20028;-68
2022/08/20 06:08:30;;;;;;;47.70;15.93;;;;;;;;;;5072560;28;20036;-69
2022/08/20 06:10:56;;;;;;;48.17;16.23;;;;;;;;;;5072570;28;20040;-68
2022/08/20 06:13:21;;;;;;;57.78;16.10;;;;;;;;;;5076015;28;20028;-69
2022/08/20 06:15:47;;;;;;;41.38;14.68;;;;;;;;;;5076454;28;20027;-68
2022/08/20 06:18:12;;;;;;;50.08;16.02;;;;;;;;;;5076650;28;20020;-69
2022/08/20 06:20:38;;;;;;;58.47;16.77;;;;;;;;;;5076498;28;20020;-68
2022/08/20 06:23:04;;;;;;;63.03;16.70;;;;;;;;;;5076179;28;20308;-68
2022/08/20 06:25:31;;;;;;;72.40;16.77;;;;;;;;;;5076178;28;20388;-68
2022/08/20 06:27:56;;;;;;;55.35;16.20;;;;;;;;;;5076563;28;20024;-69
2022/08/20 06:30:21;;;;;;;57.72;17.95;;;;;;;;;;5076359;28;20020;-69
2022/08/20 06:32:49;;;;;;;51.67;16.85;;;;;;;;;;5076375;28;20029;-69
2022/08/20 06:35:15;;;;;;;56.75;17.73;;;;;;;;;;5076310;28;20047;-69
2022/08/20 06:37:40;;;;;;;55.08;17.88;;;;;;;;;;5076213;28;20443;-69
2022/08/20 06:40:18;;;;;;;60.03;18.67;;;;;;;;;;5075988;28;20024;-68
2022/08/20 06:42:44;;;;;;;62.58;19.13;;;;;;;;;;5076205;28;20265;-69
2022/08/20 06:45:15;;;;;;;62.20;18.80;;;;;;;;;;5075701;28;20512;-69
2022/08/20 06:47:42;;;;;;;73.70;21.45;;;;;;;;;;5076156;28;20032;-69
2022/08/20 06:50:14;;;;;;;64.95;19.83;;;;;;;;;;5075844;28;20021;-69
2022/08/20 06:52:40;;;;;;;64.00;20.48;;;;;;;;;;5076252;28;20489;-69
2022/08/20 06:55:08;;;;;;;72.35;20.77;;;;;;;;;;5076124;28;20024;-69
2022/08/20 06:57:34;;;;;;;75.97;21.25;;;;;;;;;;5076105;28;20028;-68
2022/08/20 07:00:00;;;;;;;79.85;21.50;;;;;;;;;;5076307;28;20114;-69
2022/08/20 07:02:25;;;;;;;70.10;23.02;;;;;;;;;;5075857;28;20429;-68
2022/08/20 07:04:50;;;;;;;78.23;23.63;;;;;;;;;;5076267;28;20034;-69
2022/08/20 07:07:16;;;;;;;78.00;23.63;;;;;;;;;;5075712;28;20273;-69
2022/08/20 07:09:42;;;;;;;94.72;27.08;;;;;;;;;;5075715;28;20253;-69
2022/08/20 07:12:08;;;;;;;83.40;24.35;;;;;;;;;;5076327;28;20124;-68
2022/08/20 07:14:34;;;;;;;79.30;25.33;;;;;;;;;;5075850;28;20029;-68
2022/08/20 07:17:02;;;;;;;90.97;26.83;;;;;;;;;;5076258;28;20017;-69
2022/08/20 07:19:27;;;;;;;88.80;27.30;;;;;;;;;;5076114;28;20047;-68
2022/08/20 07:21:52;;;;;;;102.25;27.58;;;;;;;;;;5075964;28;20478;-68
2022/08/20 07:24:18;;;;;;;114.80;29.40;;;;;;;;;;5075471;28;20028;-68
2022/08/20 07:26:43;;;;;;;106.15;28.67;;;;;;;;;;5075394;28;20308;-69
2022/08/20 07:29:08;;;;;;;107.85;28.35;;;;;;;;;;5075368;28;20389;-69
2022/08/20 07:34:17;;;;;;;95.07;26.77;;;;;;;;;;5075057;28;20868;-68
2022/08/20 07:36:42;;;;;;;106.73;28.23;;;;;;;;;;5075291;28;20059;-69
2022/08/20 07:39:08;;;;;;;100.23;26.37;;;;;;;;;;5075050;28;20257;-69
2022/08/20 07:41:33;;;;;;;100.38;26.25;;;;;;;;;;5075361;28;20272;-69
2022/08/20 07:43:58;;;;;;;108.30;28.47;;;;;;;;;;5074877;28;20492;-68
2022/08/20 07:46:24;;;;;;;95.97;26.55;;;;;;;;;;5074694;28;20632;-69
2022/08/20 07:48:50;;;;;;;99.72;26.73;;;;;;;;;;5075022;28;20441;-69
2022/08/20 07:51:18;;;;;;;112.32;27.92;;;;;;;;;;5074954;28;20031;-68
2022/08/20 07:53:45;;;;;;;131.25;31.75;;;;;;;;;;5074589;28;20095;-69
2022/08/20 07:56:14;;;;;;;114.43;29.83;;;;;;;;;;5074885;28;20016;-68
2022/08/20 07:58:48;;;;;;;107.43;29.02;;;;;;;;;;5074458;28;20036;-68
2022/08/20 08:01:14;;;;;;;107.57;28.50;;;;;;;;;;5074726;28;20025;-69
2022/08/20 08:03:39;;;;;;;97.18;28.27;;;;;;;;;;5074801;28;20143;-68
2022/08/20 08:06:05;;;;;;;104.13;27.67;;;;;;;;;;5074454;28;20024;-68
2022/08/20 08:08:31;;;;;;;105.38;28.83;;;;;;;;;;5074303;28;20308;-68
2022/08/20 08:10:59;;;;;;;118.10;30.25;;;;;;;;;;5074247;28;20033;-68
2022/08/20 08:13:26;;;;;;;104.15;29.13;;;;;;;;;;5073909;28;20119;-68
2022/08/20 08:15:56;;;;;;;112.05;30.60;;;;;;;;;;5074032;28;20035;-69
2022/08/20 08:18:25;;;;;;;105.35;29.73;;;;;;;;;;5074383;28;20036;-68
2022/08/20 08:20:52;;;;;;;109.03;30.25;;;;;;;;;;5074398;28;20032;-69
2022/08/20 08:23:19;;;;;;;110.25;31.13;;;;;;;;;;5074217;28;20035;-68
2022/08/20 08:25:44;;;;;;;120.93;32.58;;;;;;;;;;5074310;28;20055;-68
2022/08/20 08:28:10;;;;;;;113.03;32.15;;;;;;;;;;5074115;28;20408;-69
2022/08/20 08:30:39;;;;;;;120.90;32.95;;;;;;;;;;5073953;28;20393;-69
2022/08/20 08:35:48;;;;;;;96.95;30.70;;;;;;;;;;5073876;28;20038;-69
2022/08/20 08:38:14;;;;;;;112.43;32.63;;;;;;;;;;5073909;28;20392;-69
2022/08/20 08:40:40;;;;;;;100.97;31.15;;;;;;;;;;5073833;28;20020;-68
2022/08/20 08:43:06;;;;;;;91.00;30.48;;;;;;;;;;5073838;28;20032;-69
2022/08/20 08:45:42;;;;;;;88.82;30.40;;;;;;;;;;5073496;28;20034;-68
2022/08/20 08:48:09;;;;;;;88.35;29.77;;;;;;;;;;5073691;28;20541;-68
2022/08/20 08:50:36;;;;;;;78.63;29.35;;;;;;;;;;5073740;28;20035;-68
2022/08/20 08:53:04;;;;;;;80.13;29.63;;;;;;;;;;5073393;28;20028;-68
2022/08/20 08:55:30;;;;;;;71.68;28.98;;;;;;;;;;5073469;28;20543;-69
2022/08/20 08:57:59;;;;;;;75.93;30.25;;;;;;;;;;5073526;28;20036;-68
2022/08/20 09:00:27;;;;;;;72.00;27.30;;;;;;;;;;5073742;28;20051;-68
2022/08/20 09:03:08;;;;;;;89.20;30.58;;;;;;;;;;5073590;28;20139;-68
2022/08/20 09:05:42;;;;;;;81.97;31.00;;;;;;;;;;5073238;28;20024;-68
2022/08/20 09:08:10;;;;;;;90.88;31.77;;;;;;;;;;5073484;28;20068;-69
2022/08/20 09:10:37;;;;;;;84.10;30.67;;;;;;;;;;5073052;28;20020;-68
2022/08/20 09:13:03;;;;;;;78.43;30.80;;;;;;;;;;5073325;28;20086;-68
2022/08/20 09:15:28;;;;;;;70.97;29.75;;;;;;;;;;5073231;28;20367;-68
2022/08/20 09:17:53;;;;;;;71.18;28.35;;;;;;;;;;5073039;28;20024;-69
2022/08/20 09:20:19;;;;;;;84.47;29.90;;;;;;;;;;5073223;28;20370;-68
2022/08/20 09:22:44;;;;;;;71.93;29.58;;;;;;;;;;5055048;28;20674;-68
2022/08/20 09:25:09;;;;;;;80.37;29.23;;;;;;;;;;5072858;28;20050;-68
2022/08/20 09:27:35;;;;;;;93.88;31.77;;;;;;;;;;5072976;28;20264;-69
2022/08/20 09:30:00;;;;;;;90.25;30.52;;;;;;;;;;5073275;28;20029;-69
2022/08/20 09:32:25;;;;;;;83.97;31.13;;;;;;;;;;5072963;28;20040;-68
2022/08/20 09:34:55;;;;;;;98.33;31.90;;;;;;;;;;5073156;28;20075;-69
2022/08/20 09:37:22;;;;;;;115.68;34.70;;;;;;;;;;5073244;28;20241;-69
2022/08/20 09:39:48;;;;;;;109.72;33.53;;;;;;;;;;5072778;28;20071;-68
2022/08/20 09:42:19;;;;;;;115.22;34.50;;;;;;;;;;5072783;28;20435;-69
2022/08/20 09:44:45;;;;;;;107.90;34.10;;;;;;;;;;5073351;28;20029;-78
2022/08/20 09:47:11;;;;;;;85.38;29.77;;;;;;;;;;5072404;28;20107;-75
2022/08/20 09:49:36;;;;;;;96.13;33.60;;;;;;;;;;5073419;28;20060;-74
2022/08/20 09:52:05;;;;;;;91.35;31.67;;;;;;;;;;5073344;28;20028;-75
2022/08/20 09:54:32;;;;;;;84.13;30.25;;;;;;;;;;5073418;28;20036;-75
2022/08/20 09:57:02;;;;;;;77.18;29.45;;;;;;;;;;5073492;28;20111;-75
2022/08/20 09:59:29;;;;;;;100.15;31.92;;;;;;;;;;5055284;28;20032;-75
2022/08/20 10:01:54;;;;;;;98.57;32.33;;;;;;;;;;5073355;28;20029;-75
2022/08/20 10:04:19;;;;;;;92.63;30.75;;;;;;;;;;5073411;28;20025;-75
2022/08/20 10:06:45;;;;;;;93.38;32.67;;;;;;;;;;5073266;28;20111;-75
2022/08/20 10:09:10;;;;;;;90.75;31.52;;;;;;;;;;5073480;28;20024;-75
2022/08/20 10:11:35;;;;;;;76.97;30.02;;;;;;;;;;5073359;28;20083;-75
2022/08/20 10:14:01;;;;;;;86.22;31.27;;;;;;;;;;5073428;28;20025;-76
2022/08/20 10:16:26;;;;;;;76.03;31.00;;;;;;;;;;5055110;28;20495;-75
2022/08/20 10:18:52;;;;;;;82.63;30.73;;;;;;;;;;5073294;28;20536;-76
2022/08/20 10:21:17;;;;;;;79.07;31.17;;;;;;;;;;5073508;28;20512;-75
2022/08/20 10:23:43;;;;;;;78.45;30.95;;;;;;;;;;5073156;28;20032;-75
2022/08/20 10:26:12;;;;;;;75.78;30.42;;;;;;;;;;5073569;28;20438;-76
2022/08/20 10:28:37;;;;;;;83.95;31.20;;;;;;;;;;5073002;28;20032;-75
2022/08/20 10:31:07;;;;;;;81.72;31.30;;;;;;;;;;5072828;28;20070;-75
2022/08/20 10:33:32;;;;;;;74.20;30.52;;;;;;;;;;5072929;28;20482;-75
2022/08/20 10:36:05;;;;;;;82.95;30.13;;;;;;;;;;5073313;28;20024;-75
2022/08/20 10:38:31;;;;;;;83.32;31.15;;;;;;;;;;5073355;28;20036;-74
2022/08/20 10:40:56;;;;;;;73.90;30.90;;;;;;;;;;5073464;28;20024;-75
2022/08/20 10:43:21;;;;;;;78.13;30.97;;;;;;;;;;5072752;28;20261;-75
2022/08/20 10:45:46;;;;;;;72.20;30.48;;;;;;;;;;5072816;28;20300;-75
2022/08/20 10:48:11;;;;;;;76.57;30.97;;;;;;;;;;5072861;28;20020;-74
2022/08/20 10:50:37;;;;;;;80.17;29.53;;;;;;;;;;5072908;28;20257;-75
2022/08/20 10:53:02;;;;;;;63.70;30.23;;;;;;;;;;5073030;28;20345;-75
2022/08/20 10:55:27;;;;;;;61.08;28.23;;;;;;;;;;5072301;28;20289;-75
2022/08/20 10:57:52;;;;;;;60.50;28.27;;;;;;;;;;5055487;28;20079;-74
2022/08/20 11:00:18;;;;;;;62.63;30.38;;;;;;;;;;5076340;28;20028;-74
2022/08/20 11:02:43;;;;;;;63.72;28.38;;;;;;;;;;5076384;28;20469;-76
2022/08/20 11:05:08;;;;;;;66.87;28.83;;;;;;;;;;5076401;28;20036;-75
2022/08/20 11:07:36;;;;;;;65.30;29.95;;;;;;;;;;5076032;28;20360;-74
2022/08/20 11:10:03;;;;;;;90.15;31.15;;;;;;;;;;5075849;28;20032;-76
2022/08/20 11:12:28;;;;;;;78.15;32.22;;;;;;;;;;5076468;28;20025;-76
2022/08/20 11:14:54;;;;;;;62.90;28.40;;;;;;;;;;5058063;28;20115;-77
2022/08/20 11:17:21;;;;;;;64.90;28.88;;;;;;;;;;5079094;28;20307;-77
2022/08/20 11:19:47;;;;;;;63.78;29.08;;;;;;;;;;5075298;28;20548;-77
2022/08/20 11:22:12;;;;;;;57.45;27.13;;;;;;;;;;5075763;28;20028;-77
2022/08/20 11:24:38;;;;;;;57.25;27.83;;;;;;;;;;5057447;28;20029;-77
2022/08/20 11:27:06;;;;;;;63.65;29.33;;;;;;;;;;5075816;28;20055;-77
2022/08/20 11:29:32;;;;;;;51.33;26.45;;;;;;;;;;5057728;28;20120;-77
2022/08/20 11:31:57;;;;;;;75.88;29.92;;;;;;;;;;5057848;28;20119;-77
2022/08/20 11:34:22;;;;;;;62.90;29.43;;;;;;;;;;5075298;28;20029;-77
2022/08/20 11:36:47;;;;;;;65.07;29.42;;;;;;;;;;5075067;28;20288;-77
2022/08/20 11:39:13;;;;;;;55.65;27.85;;;;;;;;;;5075077;28;20525;-77
2022/08/20 11:41:38;;;;;;;63.15;29.38;;;;;;;;;;5075637;28;20021;-77
2022/08/20 11:44:04;;;;;;;72.00;30.27;;;;;;;;;;5057829;28;20064;-77
2022/08/20 11:46:31;;;;;;;78.07;31.63;;;;;;;;;;5075259;28;20052;-77
2022/08/20 11:48:56;;;;;;;79.03;31.58;;;;;;;;;;5075271;28;20028;-78
2022/08/20 11:51:22;;;;;;;90.10;34.38;;;;;;;;;;5075098;28;20055;-77
2022/08/20 11:53:47;;;;;;;90.73;34.07;;;;;;;;;;5076128;28;20103;-78
2022/08/20 11:56:15;;;;;;;91.90;33.28;;;;;;;;;;5058618;28;20257;-78
2022/08/20 11:58:40;;;;;;;94.07;34.53;;;;;;;;;;5075491;28;20075;-77
2022/08/20 12:01:06;;;;;;;95.38;34.80;;;;;;;;;;5075338;28;20037;-76
2022/08/20 12:03:31;;;;;;;100.53;33.65;;;;;;;;;;5057307;28;20024;-76
2022/08/20 12:05:56;;;;;;;103.78;34.88;;;;;;;;;;5074311;28;20112;-75
2022/08/20 12:08:22;;;;;;;97.75;33.50;;;;;;;;;;5075319;28;20398;-76
2022/08/20 12:10:47;;;;;;;102.50;36.50;;;;;;;;;;5055532;28;20031;-75
2022/08/20 12:13:12;;;;;;;101.37;34.60;;;;;;;;;;5074055;28;20568;-75
2022/08/20 12:15:37;;;;;;;90.73;33.13;;;;;;;;;;5056269;28;20685;-74
2022/08/20 12:18:07;;;;;;;92.70;34.27;;;;;;;;;;5074398;28;20614;-75
2022/08/20 12:20:33;;;;;;;104.28;34.63;;;;;;;;;;5056024;28;20265;-75
2022/08/20 12:22:58;;;;;;;94.90;33.85;;;;;;;;;;5056249;28;20492;-75
2022/08/20 12:25:24;;;;;;;97.68;34.40;;;;;;;;;;5073826;28;20043;-75
2022/08/20 12:27:50;;;;;;;104.10;35.05;;;;;;;;;;5056419;28;20100;-76
2022/08/20 12:30:18;;;;;;;96.68;35.33;;;;;;;;;;5055933;28;20537;-78
2022/08/20 12:32:44;;;;;;;105.70;35.72;;;;;;;;;;5073868;28;20095;-76
2022/08/20 12:35:11;;;;;;;86.40;34.03;;;;;;;;;;5073773;28;20499;-76
2022/08/20 12:37:36;;;;;;;85.78;32.67;;;;;;;;;;5074275;28;20343;-75
2022/08/20 12:40:06;;;;;;;95.75;34.03;;;;;;;;;;5055859;28;20023;-76
2022/08/20 12:42:31;;;;;;;81.32;32.92;;;;;;;;;;5073502;28;20414;-76
2022/08/20 12:44:57;;;;;;;75.20;32.23;;;;;;;;;;5073706;28;20024;-76
2022/08/20 12:47:26;;;;;;;68.90;30.83;;;;;;;;;;5073873;28;20272;-76
2022/08/20 12:49:59;;;;;;;70.32;30.45;;;;;;;;;;5055978;28;20043;-76
2022/08/20 12:52:24;;;;;;;66.57;29.63;;;;;;;;;;5073841;28;20050;-75
2022/08/20 12:54:50;;;;;;;67.53;29.80;;;;;;;;;;5073571;28;20028;-74
2022/08/20 12:57:28;;;;;;;63.58;30.17;;;;;;;;;;5073726;28;20052;-75
2022/08/20 12:59:55;;;;;;;63.03;28.38;;;;;;;;;;5073750;28;20024;-75
2022/08/20 13:02:20;;;;;;;64.68;29.00;;;;;;;;;;5073381;28;20052;-76
2022/08/20 13:04:45;;;;;;;53.43;28.07;;;;;;;;;;5073143;28;20052;-76
2022/08/20 13:07:12;;;;;;;53.85;27.92;;;;;;;;;;5073115;28;20281;-76
2022/08/20 13:09:38;;;;;;;53.85;27.35;;;;;;;;;;5073372;28;20486;-75
2022/08/20 13:12:04;;;;;;;54.40;28.17;;;;;;;;;;5073333;28;20036;-76
2022/08/20 13:14:29;;;;;;;53.85;27.67;;;;;;;;;;5055215;28;20083;-76
2022/08/20 13:17:00;;;;;;;52.50;28.08;;;;;;;;;;5073038;28;20016;-76
2022/08/20 13:19:26;;;;;;;59.55;28.08;;;;;;;;;;5055290;28;20502;-75
2022/08/20 13:21:52;;;;;;;55.50;26.95;;;;;;;;;;5073042;28;20397;-75
2022/08/20 13:24:18;;;;;;;54.47;27.20;;;;;;;;;;5072852;28;20021;-76
2022/08/20 13:26:44;;;;;;;48.97;24.83;;;;;;;;;;5073172;28;20031;-75
2022/08/20 13:29:09;;;;;;;52.63;26.75;;;;;;;;;;5073589;28;20031;-75
2022/08/20 13:31:34;;;;;;;43.75;25.65;;;;;;;;;;5072946;28;20499;-75
2022/08/20 13:33:59;;;;;;;47.27;25.70;;;;;;;;;;5072930;28;20028;-76
2022/08/20 13:36:25;;;;;;;50.78;26.85;;;;;;;;;;5054864;28;20743;-76
2022/08/20 13:38:50;;;;;;;45.95;26.45;;;;;;;;;;5072892;28;20423;-76
2022/08/20 13:41:16;;;;;;;52.33;26.65;;;;;;;;;;5072865;28;20032;-76
2022/08/20 13:43:41;;;;;;;48.05;26.08;;;;;;;;;;5054819;28;20079;-76
2022/08/20 13:46:06;;;;;;;52.87;26.23;;;;;;;;;;5072830;28;20383;-75
2022/08/20 13:48:32;;;;;;;44.50;24.40;;;;;;;;;;5072856;28;20331;-75
2022/08/20 13:50:57;;;;;;;40.80;23.77;;;;;;;;;;5072795;28;20029;-76
2022/08/20 13:53:23;;;;;;;31.33;20.88;;;;;;;;;;5054991;28;20032;-76
2022/08/20 13:55:48;;;;;;;31.20;19.73;;;;;;;;;;5072716;28;20063;-76
2022/08/20 13:58:13;;;;;;;32.67;20.10;;;;;;;;;;5072714;28;20029;-76
2022/08/20 14:00:39;;;;;;;31.63;20.30;;;;;;;;;;5073020;28;20550;-76
2022/08/20 14:03:05;;;;;;;34.97;20.65;;;;;;;;;;5054729;28;20027;-76
2022/08/20 14:05:31;;;;;;;29.83;19.13;;;;;;;;;;5073241;28;20040;-74
2022/08/20 14:08:21;;;;;;;28.95;18.65;;;;;;;;;;5072620;28;20039;-76
2022/08/20 14:10:49;;;;;;;28.88;18.23;;;;;;;;;;5072860;28;20082;-76
2022/08/20 14:13:16;;;;;;;27.80;18.10;;;;;;;;;;5072608;28;20021;-75
2022/08/20 14:15:42;;;;;;;27.10;17.83;;;;;;;;;;5072637;28;20385;-75
2022/08/20 14:18:08;;;;;;;18.48;13.93;;;;;;;;;;5072530;28;20063;-75
2022/08/20 14:20:33;;;;;;;13.38;10.23;;;;;;;;;;5072599;28;20485;-76
2022/08/20 14:22:59;;;;;;;13.27;9.93;;;;;;;;;;5072533;28;20028;-76
2022/08/20 14:25:26;;;;;;;14.20;10.23;;;;;;;;;;5072363;28;20024;-76